createdAt,value
2023-04-15T00:01:49.967Z,86.08
2023-04-15T00:04:52.862Z,85.15
2023-04-15T00:07:57.196Z,84.58
2023-04-15T00:11:03.024Z,84.52
2023-04-15T00:14:06.201Z,85.55
2023-04-15T00:17:09.165Z,84.70
2023-04-15T00:20:12.614Z,83.81
2023-04-15T00:23:16.912Z,84.44
2023-04-15T00:26:20.884Z,85.59
2023-04-15T00:29:23.583Z,85.39
2023-04-15T00:32:26.587Z,85.54
2023-04-15T00:35:29.386Z,84.54
2023-04-15T00:38:33.601Z,84.90
2023-04-15T00:41:39.255Z,84.23
2023-04-15T00:44:42.630Z,85.11
2023-04-15T00:47:46.347Z,84.60
2023-04-15T00:50:49.483Z,85.38
2023-04-15T00:53:53.589Z,83.89
2023-04-15T00:56:56.694Z,83.65
2023-04-15T00:59:59.996Z,84.41
2023-04-15T01:03:03.338Z,84.79
2023-04-15T01:06:06.730Z,84.95
2023-04-15T01:09:11.211Z,84.82
2023-04-15T01:12:16.493Z,83.97
2023-04-15T01:15:19.483Z,84.45
2023-04-15T01:18:23.386Z,84.58
2023-04-15T01:21:26.765Z,84.53
2023-04-15T01:24:33.124Z,85.02
2023-04-15T01:27:41.028Z,84.49
2023-04-15T01:30:44.567Z,85.17
2023-04-15T01:33:47.610Z,85.00
2023-04-15T01:36:50.495Z,85.13
2023-04-15T01:39:53.238Z,84.63
2023-04-15T01:42:57.775Z,85.55
2023-04-15T01:46:00.477Z,85.10
2023-04-15T01:49:03.387Z,85.11
2023-04-15T01:52:06.337Z,85.55
2023-04-15T01:55:10.047Z,85.78
2023-04-15T01:58:14.233Z,85.63
2023-04-15T02:01:19.501Z,85.20
2023-04-15T02:04:22.399Z,85.26
2023-04-15T02:07:25.553Z,85.65
2023-04-15T02:10:28.471Z,84.86
2023-04-15T02:13:32.640Z,84.65
2023-04-15T02:16:35.444Z,85.57
2023-04-15T02:19:39.437Z,84.14
2023-04-15T02:22:42.524Z,85.19
2023-04-15T02:25:53.545Z,84.99
2023-04-15T02:28:58.797Z,85.21
2023-04-15T02:32:01.682Z,85.20
2023-04-15T02:35:05.708Z,85.23
2023-04-15T02:38:08.596Z,85.03
2023-04-15T02:41:11.464Z,85.56
2023-04-15T02:44:15.665Z,84.87
2023-04-15T02:47:18.358Z,85.04
2023-04-15T02:50:21.619Z,84.89
2023-04-15T02:53:24.464Z,85.00
2023-04-15T02:56:27.514Z,85.45
2023-04-15T02:59:31.748Z,85.44
2023-04-15T03:02:36.022Z,85.30
2023-04-15T03:05:39.703Z,85.37
2023-04-15T03:08:42.776Z,85.83
2023-04-15T03:11:45.503Z,86.46
2023-04-15T03:14:49.730Z,85.92
2023-04-15T03:17:52.489Z,85.67
2023-04-15T03:20:55.511Z,85.86
2023-04-15T03:23:58.457Z,85.09
2023-04-15T03:27:01.720Z,85.67
2023-04-15T03:30:06.882Z,84.97
2023-04-15T03:33:09.642Z,84.92
2023-04-15T03:36:12.630Z,85.02
2023-04-15T03:39:15.436Z,85.55
2023-04-15T03:42:18.265Z,85.33
2023-04-15T03:45:22.396Z,86.20
2023-04-15T03:48:25.332Z,86.52
2023-04-15T03:51:28.362Z,86.52
2023-04-15T03:54:31.217Z,85.07
2023-04-15T03:57:37.919Z,85.56
2023-04-15T04:00:42.623Z,85.77
2023-04-15T04:03:45.536Z,86.20
2023-04-15T04:06:48.533Z,85.95
2023-04-15T04:09:51.545Z,85.68
2023-04-15T04:12:54.225Z,85.85
2023-04-15T04:15:58.372Z,86.19
2023-04-15T04:19:01.268Z,86.10
2023-04-15T04:22:04.338Z,85.36
2023-04-15T04:25:08.484Z,85.80
2023-04-15T04:28:11.661Z,85.81
2023-04-15T04:31:15.772Z,84.92
2023-04-15T04:34:18.501Z,85.51
2023-04-15T04:37:21.297Z,86.38
2023-04-15T04:40:24.054Z,86.60
2023-04-15T04:43:27.020Z,85.44
2023-04-15T04:46:31.157Z,86.00
2023-04-15T04:49:33.863Z,86.10
2023-04-15T04:52:36.857Z,85.24
2023-04-15T04:55:39.540Z,86.27
2023-04-15T04:58:42.483Z,85.88
2023-04-15T05:01:46.772Z,84.87
2023-04-15T05:04:50.118Z,85.13
2023-04-15T05:07:53.389Z,84.63
2023-04-15T05:10:56.161Z,84.28
2023-04-15T05:13:59.918Z,84.33
2023-04-15T05:17:03.999Z,84.49
2023-04-15T05:20:07.921Z,85.40
2023-04-15T05:23:10.916Z,85.81
2023-04-15T05:26:13.989Z,85.48
2023-04-15T05:29:16.730Z,84.88
2023-04-15T05:32:20.960Z,84.81
2023-04-15T05:35:23.921Z,85.24
2023-04-15T05:38:27.185Z,84.88
2023-04-15T05:41:32.519Z,85.35
2023-04-15T05:44:35.582Z,84.57
2023-04-15T05:47:39.883Z,85.08
2023-04-15T05:50:43.012Z,84.07
2023-04-15T05:53:47.066Z,84.22
2023-04-15T05:56:50.092Z,84.62
2023-04-15T05:59:53.475Z,83.79
2023-04-15T06:02:59.206Z,82.57
2023-04-15T06:06:02.446Z,83.03
2023-04-15T06:09:05.547Z,83.08
2023-04-15T06:12:12.223Z,82.18
2023-04-15T06:15:15.130Z,81.98
2023-04-15T06:18:19.998Z,82.59
2023-04-15T06:21:22.937Z,83.06
2023-04-15T06:24:25.949Z,81.10
2023-04-15T06:27:28.919Z,81.40
2023-04-15T06:30:31.760Z,81.48
2023-04-15T06:33:35.931Z,79.17
2023-04-15T06:36:38.653Z,79.07
2023-04-15T06:39:41.510Z,79.67
2023-04-15T06:42:44.275Z,79.33
2023-04-15T06:45:47.232Z,78.84
2023-04-15T06:48:52.475Z,78.49
2023-04-15T06:51:55.525Z,78.05
2023-04-15T06:54:59.555Z,77.44
2023-04-15T06:58:02.261Z,77.83
2023-04-15T07:01:05.210Z,79.20
2023-04-15T07:04:09.455Z,77.00
2023-04-15T07:07:12.173Z,74.08
2023-04-15T07:10:15.904Z,73.73
2023-04-15T07:13:18.871Z,74.92
2023-04-15T07:16:22.655Z,73.04
2023-04-15T07:19:27.268Z,73.87
2023-04-15T07:22:30.313Z,73.48
2023-04-15T07:25:33.636Z,73.78
2023-04-15T07:28:36.630Z,73.74
2023-04-15T07:31:39.370Z,73.09
2023-04-15T07:34:44.432Z,74.14
2023-04-15T07:37:47.104Z,73.95
2023-04-15T07:40:49.932Z,75.10
2023-04-15T07:43:52.633Z,74.35
2023-04-15T07:46:55.418Z,74.84
2023-04-15T07:50:00.247Z,75.45
2023-04-15T07:53:02.940Z,74.42
2023-04-15T07:56:06.667Z,75.33
2023-04-15T07:59:09.902Z,74.53
2023-04-15T08:02:12.994Z,73.58
2023-04-15T08:05:17.346Z,75.21
2023-04-15T08:08:20.114Z,74.16
2023-04-15T08:11:23.281Z,74.25
2023-04-15T08:14:26.404Z,75.11
2023-04-15T08:17:29.297Z,74.69
2023-04-15T08:20:33.877Z,73.38
2023-04-15T08:23:36.678Z,74.02
2023-04-15T08:26:39.581Z,73.50
2023-04-15T08:29:42.430Z,74.82
2023-04-15T08:32:47.457Z,74.01
2023-04-15T08:35:52.249Z,73.80
2023-04-15T08:38:55.031Z,74.24
2023-04-15T08:42:02.820Z,74.45
2023-04-15T08:45:06.732Z,75.20
2023-04-15T08:48:16.683Z,75.04
2023-04-15T08:51:23.258Z,73.62
2023-04-15T08:54:28.105Z,73.42
2023-04-15T08:57:31.178Z,73.04
2023-04-15T09:00:34.601Z,73.35
2023-04-15T09:03:38.446Z,74.42
2023-04-15T09:06:42.652Z,73.05
2023-04-15T09:09:46.068Z,73.17
2023-04-15T09:12:48.796Z,75.24
2023-04-15T09:15:51.586Z,73.29
2023-04-15T09:18:54.899Z,72.95
2023-04-15T09:22:00.638Z,73.85
2023-04-15T09:25:03.835Z,74.30
2023-04-15T09:28:06.725Z,72.93
2023-04-15T09:31:10.592Z,74.38
2023-04-15T09:34:13.479Z,73.06
2023-04-15T09:37:31.677Z,74.37
2023-04-15T09:40:37.130Z,73.73
2023-04-15T09:43:41.100Z,72.23
2023-04-15T09:46:45.169Z,72.33
2023-04-15T09:49:56.675Z,72.48
2023-04-15T09:53:04.598Z,71.08
2023-04-15T09:56:09.056Z,72.02
2023-04-15T09:59:12.159Z,72.70
2023-04-15T10:02:15.745Z,72.54
2023-04-15T10:05:18.981Z,72.07
2023-04-15T10:08:25.198Z,74.31
2023-04-15T10:11:31.820Z,73.88
2023-04-15T10:14:39.704Z,73.37
2023-04-15T10:17:45.717Z,73.92
2023-04-15T10:20:49.915Z,74.22
2023-04-15T10:23:55.628Z,74.93
2023-04-15T10:26:58.589Z,76.05
2023-04-15T10:30:03.119Z,75.79
2023-04-15T10:33:06.898Z,75.26
2023-04-15T10:36:10.047Z,76.63
2023-04-15T10:39:43.174Z,77.32
2023-04-15T10:42:46.138Z,76.48
2023-04-15T10:45:50.051Z,78.12
2023-04-15T10:48:53.916Z,77.90
2023-04-15T10:52:01.067Z,76.51
2023-04-15T10:55:14.901Z,77.04
2023-04-15T10:58:17.833Z,77.08
2023-04-15T11:01:23.763Z,77.15
2023-04-15T11:04:55.454Z,76.22
2023-04-15T11:07:58.608Z,77.75
2023-04-15T11:11:02.811Z,78.70
2023-04-15T11:14:05.705Z,79.02
2023-04-15T11:17:09.106Z,78.48
2023-04-15T11:20:17.230Z,78.21
2023-04-15T11:23:21.377Z,79.52
2023-04-15T11:26:27.835Z,78.78
2023-04-15T11:29:32.286Z,78.49
2023-04-15T11:32:35.287Z,79.39
2023-04-15T11:35:37.987Z,79.22
2023-04-15T11:38:44.318Z,79.43
2023-04-15T11:41:48.456Z,78.96
2023-04-15T11:44:51.679Z,79.48
2023-04-15T11:47:54.392Z,79.10
2023-04-15T11:50:59.231Z,79.21
2023-04-15T11:54:02.665Z,80.07
2023-04-15T11:57:07.018Z,78.69
2023-04-15T12:00:11.112Z,79.08
2023-04-15T12:03:20.290Z,79.12
2023-04-15T12:06:24.767Z,80.03
2023-04-15T12:09:27.905Z,80.69
2023-04-15T12:12:32.147Z,80.76
2023-04-15T12:15:34.883Z,80.03
2023-04-15T12:18:39.145Z,80.50
2023-04-15T12:21:47.304Z,80.67
2023-04-15T12:24:57.535Z,80.19
2023-04-15T12:28:01.652Z,80.23
2023-04-15T12:31:08.884Z,80.47
2023-04-15T12:34:11.624Z,80.53
2023-04-15T12:37:15.054Z,80.10
2023-04-15T12:40:18.006Z,80.88
2023-04-15T12:43:30.758Z,79.85
2023-04-15T12:46:33.900Z,79.44
2023-04-15T12:49:37.600Z,78.91
2023-04-15T12:52:40.845Z,80.57
2023-04-15T12:55:43.701Z,79.42
2023-04-15T12:58:48.061Z,78.66
2023-04-15T13:01:52.383Z,79.41
2023-04-15T13:04:56.101Z,80.23
2023-04-15T13:07:59.310Z,80.68
2023-04-15T13:11:02.262Z,80.80
2023-04-15T13:14:08.472Z,80.82
2023-04-15T13:17:11.720Z,81.28
2023-04-15T13:20:14.437Z,81.72
2023-04-15T13:23:17.398Z,81.41
2023-04-15T13:26:20.672Z,80.94
2023-04-15T13:32:50.483Z,80.38
2023-04-15T13:35:53.721Z,80.09
2023-04-15T13:38:56.976Z,80.61
2023-04-15T13:42:00.022Z,81.87
2023-04-15T13:45:04.253Z,82.32
2023-04-15T13:48:07.808Z,82.06
2023-04-15T13:51:10.669Z,81.96
2023-04-15T13:54:16.310Z,82.69
2023-04-15T13:57:19.150Z,82.42
2023-04-15T14:00:23.440Z,82.30
2023-04-15T14:03:26.724Z,82.42
2023-04-15T14:06:29.927Z,82.45
2023-04-15T14:12:36.377Z,80.51
2023-04-15T14:15:43.605Z,81.88
2023-04-15T14:18:48.719Z,82.69
2023-04-15T14:21:51.723Z,82.38
2023-04-15T14:24:55.648Z,82.49
2023-04-15T14:27:58.613Z,83.51
2023-04-15T14:31:02.779Z,82.91
2023-04-15T14:34:06.396Z,82.61
2023-04-15T14:37:09.383Z,82.81
2023-04-15T14:40:13.588Z,81.47
2023-04-15T14:43:17.031Z,82.79
2023-04-15T14:46:21.460Z,82.86
2023-04-15T14:49:24.270Z,82.36
2023-04-15T14:52:27.263Z,83.00
2023-04-15T14:55:29.982Z,84.08
2023-04-15T14:58:33.454Z,82.50
2023-04-15T15:01:37.620Z,84.05
2023-04-15T15:04:40.790Z,82.18
2023-04-15T15:07:43.847Z,83.22
2023-04-15T15:10:48.215Z,82.96
2023-04-15T15:13:53.676Z,83.11
2023-04-15T15:16:57.976Z,84.81
2023-04-15T15:20:01.066Z,84.69
2023-04-15T15:23:04.027Z,83.14
2023-04-15T15:26:09.374Z,83.85
2023-04-15T15:29:12.417Z,84.66
2023-04-15T15:32:17.197Z,84.38
2023-04-15T15:35:20.238Z,83.81
2023-04-15T15:38:23.894Z,84.81
2023-04-15T15:41:33.407Z,83.45
2023-04-15T15:44:41.197Z,82.88
2023-04-15T15:47:45.849Z,83.35
2023-04-15T15:50:49.252Z,84.23
2023-04-15T15:53:52.104Z,84.08
2023-04-15T15:56:58.638Z,84.07
2023-04-15T16:00:11.474Z,84.41
2023-04-15T16:03:17.018Z,84.84
2023-04-15T16:06:22.482Z,86.05
2023-04-15T16:09:25.635Z,84.90
2023-04-15T16:12:28.606Z,84.12
2023-04-15T16:15:31.573Z,84.26
2023-04-15T16:18:36.049Z,83.57
2023-04-15T16:21:41.623Z,84.06
2023-04-15T16:24:46.021Z,84.20
2023-04-15T16:28:00.718Z,83.56
2023-04-15T16:31:06.864Z,84.07
2023-04-15T16:34:11.470Z,85.39
2023-04-15T16:37:14.742Z,86.06
2023-04-15T16:40:18.221Z,85.49
2023-04-15T16:43:21.337Z,86.09
2023-04-15T16:46:24.400Z,85.58
2023-04-15T16:49:28.542Z,85.96
2023-04-15T16:52:40.777Z,85.14
2023-04-15T16:55:46.365Z,85.12
2023-04-15T16:58:49.386Z,85.61
2023-04-15T17:01:52.531Z,84.90
2023-04-15T17:05:04.548Z,85.20
2023-04-15T17:08:08.373Z,84.23
2023-04-15T17:11:11.946Z,85.14
2023-04-15T17:14:14.798Z,85.93
2023-04-15T17:17:18.025Z,86.34
2023-04-15T17:20:22.544Z,86.45
2023-04-15T17:23:28.083Z,86.29
2023-04-15T17:26:31.144Z,86.74
2023-04-15T17:29:34.413Z,85.93
2023-04-15T17:32:37.753Z,87.27
2023-04-15T17:35:42.138Z,86.13
2023-04-15T17:38:45.664Z,85.50
2023-04-15T17:41:48.541Z,85.97
2023-04-15T17:44:51.828Z,85.38
2023-04-15T17:47:59.774Z,85.16
2023-04-15T17:51:04.169Z,86.63
2023-04-15T17:54:07.154Z,87.58
2023-04-15T17:57:10.902Z,87.15
2023-04-15T18:00:24.320Z,85.78
2023-04-15T18:03:27.543Z,86.91
2023-04-15T18:06:34.302Z,87.39
2023-04-15T18:09:39.004Z,87.56
2023-04-15T18:12:42.027Z,86.96
2023-04-15T18:15:48.852Z,86.92
2023-04-15T18:18:52.476Z,86.78
2023-04-15T18:21:56.703Z,86.16
2023-04-15T18:25:04.416Z,86.49
2023-04-15T18:28:07.625Z,87.57
2023-04-15T18:31:10.570Z,87.98
2023-04-15T18:34:14.005Z,87.67
2023-04-15T18:37:18.582Z,86.21
2023-04-15T18:40:21.355Z,87.16
2023-04-15T18:43:24.286Z,87.82
2023-04-15T18:46:27.359Z,87.99
2023-04-15T18:49:31.014Z,87.49
2023-04-15T18:52:35.427Z,86.85
2023-04-15T18:55:38.160Z,87.35
2023-04-15T18:59:21.149Z,86.65
2023-04-15T19:02:07.529Z,86.93
2023-04-15T19:05:10.809Z,86.09
2023-04-15T19:08:15.054Z,86.23
2023-04-15T19:11:17.765Z,86.71
2023-04-15T19:14:20.595Z,86.61
2023-04-15T19:17:23.433Z,86.32
2023-04-15T19:20:26.298Z,86.73
2023-04-15T19:23:32.321Z,87.17
2023-04-15T19:26:36.562Z,85.78
2023-04-15T19:29:39.414Z,86.53
2023-04-15T19:32:43.856Z,86.36
2023-04-15T19:35:49.751Z,86.88
2023-04-15T19:38:54.026Z,87.44
2023-04-15T19:41:58.769Z,86.58
2023-04-15T19:45:01.676Z,86.46
2023-04-15T19:48:06.229Z,87.20
2023-04-15T19:51:09.066Z,86.12
2023-04-15T19:54:13.271Z,86.09
2023-04-15T19:57:15.993Z,86.09
2023-04-15T20:00:18.839Z,86.24
2023-04-15T20:03:22.077Z,85.92
2023-04-15T20:06:25.033Z,86.65
2023-04-15T20:09:29.449Z,86.78
2023-04-15T20:12:50.271Z,86.27
2023-04-15T20:15:55.120Z,86.68
2023-04-15T20:18:59.599Z,86.32
2023-04-15T20:22:02.361Z,86.88
2023-04-15T20:25:07.673Z,87.39
2023-04-15T20:28:10.407Z,86.11
2023-04-15T20:31:13.287Z,86.13
2023-04-15T20:34:16.381Z,86.67
2023-04-15T20:37:19.082Z,87.13
2023-04-15T20:40:23.389Z,87.41
2023-04-15T20:43:26.265Z,87.79
2023-04-15T20:46:29.343Z,86.42
2023-04-15T20:49:34.672Z,86.76
2023-04-15T20:52:37.503Z,86.39
2023-04-15T20:55:43.592Z,87.31
2023-04-15T20:58:46.378Z,87.49
2023-04-15T21:01:49.383Z,87.35
2023-04-15T21:04:52.263Z,86.20
2023-04-15T21:07:55.212Z,85.13
2023-04-15T21:10:59.620Z,87.02
2023-04-15T21:14:02.588Z,86.40
2023-04-15T21:17:09.158Z,87.26
2023-04-15T21:20:13.801Z,87.38
2023-04-15T21:23:16.704Z,87.23
2023-04-15T21:26:20.959Z,86.63
2023-04-15T21:29:24.094Z,86.72
2023-04-15T21:32:26.947Z,87.47
2023-04-15T21:35:30.597Z,87.02
2023-04-15T21:38:33.934Z,87.08
2023-04-15T21:41:38.413Z,86.66
2023-04-15T21:44:41.366Z,86.81
2023-04-15T21:48:04.926Z,87.50
2023-04-15T21:51:07.185Z,87.61
2023-04-15T21:54:10.208Z,87.19
2023-04-15T21:57:14.915Z,86.92
2023-04-15T22:00:18.125Z,86.28
2023-04-15T22:03:20.946Z,86.04
2023-04-15T22:06:24.039Z,87.19
2023-04-15T22:09:26.733Z,87.63
2023-04-15T22:12:31.416Z,87.76
2023-04-15T22:15:34.276Z,87.75
2023-04-15T22:18:37.006Z,86.34
2023-04-15T22:21:39.828Z,87.32
2023-04-15T22:24:42.631Z,86.47
2023-04-15T22:27:46.939Z,86.05
2023-04-15T22:30:49.799Z,86.93
2023-04-15T22:33:52.530Z,86.80
2023-04-15T22:36:55.521Z,86.64
2023-04-15T22:39:58.575Z,85.22
2023-04-15T22:43:02.876Z,86.38
2023-04-15T22:46:05.896Z,86.00
2023-04-15T22:49:10.226Z,87.21
2023-04-15T22:52:20.218Z,87.13
2023-04-15T22:55:30.121Z,87.15
2023-04-15T22:58:34.340Z,87.64
2023-04-15T23:01:38.341Z,87.20
2023-04-15T23:04:41.440Z,87.76
2023-04-15T23:07:44.515Z,87.67
2023-04-15T23:10:47.637Z,87.53
2023-04-15T23:13:51.854Z,87.67
2023-04-15T23:16:54.840Z,86.94
2023-04-15T23:19:57.570Z,87.07
2023-04-15T23:23:00.440Z,87.19
2023-04-15T23:26:03.931Z,87.44
2023-04-15T23:29:08.459Z,87.35
2023-04-15T23:32:11.602Z,87.66
2023-04-15T23:35:14.387Z,87.96
2023-04-15T23:38:17.268Z,87.01
2023-04-15T23:41:20.066Z,87.51
2023-04-15T23:44:24.705Z,86.48
2023-04-15T23:47:27.620Z,87.48
2023-04-15T23:50:30.444Z,87.92
2023-04-15T23:53:33.259Z,87.86
2023-04-15T23:56:36.379Z,87.58
2023-04-15T23:59:40.627Z,87.51
